createdAt,value
2018-04-23T00:00:09.370Z,48.46
2018-04-23T00:02:36.942Z,48.82
2018-04-23T00:05:04.473Z,49.46
2018-04-23T00:07:32.048Z,49.73
2018-04-23T00:09:59.587Z,50.07
2018-04-23T00:12:27.177Z,49.85
2018-04-23T00:14:54.750Z,50.70
2018-04-23T00:17:22.283Z,49.45
2018-04-23T00:19:49.864Z,50.62
2018-04-23T00:22:17.449Z,51.95
2018-04-23T00:24:44.991Z,52.70
2018-04-23T00:27:12.559Z,52.68
2018-04-23T00:29:40.093Z,52.75
2018-04-23T00:32:07.628Z,52.53
2018-04-23T00:34:35.163Z,52.97
2018-04-23T00:37:02.713Z,53.47
2018-04-23T00:39:30.255Z,53.32
2018-04-23T00:41:57.785Z,53.42
2018-04-23T00:44:25.332Z,53.14
2018-04-23T00:46:52.887Z,53.65
2018-04-23T00:49:20.438Z,53.67
2018-04-23T00:51:47.969Z,54.46
2018-04-23T00:54:15.512Z,54.80
2018-04-23T00:56:43.043Z,54.59
2018-04-23T00:59:10.572Z,54.96
2018-04-23T01:01:38.099Z,55.04
2018-04-23T01:04:05.626Z,55.00
2018-04-23T01:06:33.159Z,55.43
2018-04-23T01:09:00.731Z,55.68
2018-04-23T01:11:28.261Z,55.28
2018-04-23T01:13:55.784Z,55.26
2018-04-23T01:16:24.217Z,55.15
2018-04-23T01:18:51.790Z,55.20
2018-04-23T01:21:19.328Z,55.97
2018-04-23T01:23:46.873Z,56.45
2018-04-23T01:26:14.416Z,56.00
2018-04-23T01:28:41.963Z,56.84
2018-04-23T01:31:09.540Z,58.02
2018-04-23T01:33:37.075Z,57.57
2018-04-23T01:36:04.636Z,57.61
2018-04-23T01:38:32.202Z,58.06
2018-04-23T01:40:59.748Z,57.89
2018-04-23T01:43:27.290Z,58.10
2018-04-23T01:45:54.818Z,58.21
2018-04-23T01:48:22.347Z,58.44
2018-04-23T01:50:54.077Z,58.84
2018-04-23T01:53:21.700Z,59.00
2018-04-23T01:55:49.281Z,59.48
2018-04-23T01:58:16.851Z,59.31
2018-04-23T02:00:44.415Z,59.23
2018-04-23T02:03:11.943Z,59.43
2018-04-23T02:05:39.471Z,59.45
2018-04-23T02:08:07.055Z,59.69
2018-04-23T02:10:34.584Z,60.37
2018-04-23T02:13:02.576Z,59.95
2018-04-23T02:15:30.103Z,60.05
2018-04-23T02:17:57.668Z,59.62
2018-04-23T02:20:25.204Z,59.52
2018-04-23T02:22:52.831Z,59.36
2018-04-23T02:25:20.343Z,59.60
2018-04-23T02:27:47.886Z,59.58
2018-04-23T02:30:15.467Z,59.40
2018-04-23T02:32:43.000Z,59.49
2018-04-23T02:35:10.580Z,59.84
2018-04-23T02:37:38.143Z,59.92
2018-04-23T02:40:05.720Z,60.32
2018-04-23T02:42:34.033Z,60.75
2018-04-23T02:45:02.528Z,61.33
2018-04-23T02:47:30.104Z,61.15
2018-04-23T02:49:57.672Z,61.69
2018-04-23T02:52:25.215Z,62.46
2018-04-23T02:54:52.766Z,63.09
2018-04-23T02:57:20.304Z,63.22
2018-04-23T02:59:47.853Z,63.31
2018-04-23T03:02:16.419Z,62.92
2018-04-23T03:04:43.963Z,62.98
2018-04-23T03:07:11.552Z,62.97
2018-04-23T03:09:39.088Z,63.80
2018-04-23T03:12:06.620Z,63.77
2018-04-23T03:14:34.199Z,64.05
2018-04-23T03:17:01.748Z,64.44
2018-04-23T03:19:29.335Z,63.77
2018-04-23T03:21:56.871Z,65.05
2018-04-23T03:24:24.446Z,66.27
2018-04-23T03:26:51.982Z,66.00
2018-04-23T03:29:19.514Z,65.70
2018-04-23T03:31:47.080Z,65.42
2018-04-23T03:34:14.607Z,65.05
2018-04-23T03:36:42.169Z,65.47
2018-04-23T03:39:09.699Z,65.47
2018-04-23T03:41:37.247Z,66.32
2018-04-23T03:44:04.811Z,65.95
2018-04-23T03:46:33.258Z,65.58
2018-04-23T03:49:00.793Z,65.87
2018-04-23T03:51:28.366Z,65.78
2018-04-23T03:53:55.905Z,65.92
2018-04-23T03:56:23.448Z,65.61
2018-04-23T03:58:51.053Z,65.61
2018-04-23T04:01:18.589Z,65.21
2018-04-23T04:03:46.129Z,65.39
2018-04-23T04:06:13.666Z,65.54
2018-04-23T04:08:41.200Z,65.75
2018-04-23T04:11:08.744Z,65.21
2018-04-23T04:13:48.104Z,64.61
2018-04-23T04:16:27.555Z,63.69
2018-04-23T04:18:55.110Z,61.84
2018-04-23T04:21:22.643Z,60.29
2018-04-23T04:23:50.172Z,58.41
2018-04-23T04:26:17.708Z,56.84
2018-04-23T04:28:45.279Z,55.26
2018-04-23T04:31:13.133Z,54.20
2018-04-23T04:33:40.655Z,53.32
2018-04-23T04:36:08.187Z,52.24
2018-04-23T04:38:35.758Z,51.24
2018-04-23T04:41:03.295Z,50.91
2018-04-23T04:43:30.832Z,50.75
2018-04-23T04:45:58.366Z,50.12
2018-04-23T04:48:25.899Z,50.88
2018-04-23T04:50:53.485Z,49.69
2018-04-23T04:53:21.028Z,47.63
2018-04-23T04:55:48.560Z,46.21
2018-04-23T04:58:16.087Z,45.97
2018-04-23T05:00:43.628Z,45.65
2018-04-23T05:03:11.181Z,43.89
2018-04-23T05:05:38.775Z,43.92
2018-04-23T05:08:06.315Z,43.62
2018-04-23T05:10:33.849Z,43.95
2018-04-23T05:13:01.429Z,43.00
2018-04-23T05:15:29.985Z,42.81
2018-04-23T05:17:57.563Z,41.20
2018-04-23T05:20:25.096Z,38.54
2018-04-23T05:22:52.691Z,38.69
2018-04-23T05:25:20.228Z,38.55
2018-04-23T05:27:47.778Z,39.23
2018-04-23T05:30:15.357Z,36.72
2018-04-23T05:32:42.898Z,36.97
2018-04-23T05:35:10.479Z,39.24
2018-04-23T05:37:38.021Z,38.71
2018-04-23T05:40:05.563Z,38.03
2018-04-23T05:42:33.142Z,37.35
2018-04-23T05:45:00.690Z,36.57
2018-04-23T05:47:28.232Z,36.30
2018-04-23T05:49:55.828Z,35.42
2018-04-23T05:52:23.415Z,34.33
2018-04-23T05:54:50.962Z,35.74
2018-04-23T05:57:18.497Z,35.05
2018-04-23T05:59:46.077Z,34.86
2018-04-23T06:02:14.128Z,34.48
2018-04-23T06:04:42.001Z,35.37
2018-04-23T06:07:09.534Z,34.31
2018-04-23T06:09:37.076Z,33.58
2018-04-23T06:12:04.607Z,32.38
2018-04-23T06:14:32.139Z,32.62
2018-04-23T06:16:59.675Z,33.56
2018-04-23T06:19:27.217Z,31.45
2018-04-23T06:21:54.842Z,32.78
2018-04-23T06:24:22.424Z,32.36
2018-04-23T06:26:49.973Z,29.69
2018-04-23T06:29:17.564Z,29.49
2018-04-23T06:31:45.104Z,30.96
2018-04-23T06:34:12.681Z,32.51
2018-04-23T06:36:40.238Z,32.84
2018-04-23T06:39:07.778Z,32.18
2018-04-23T06:41:35.343Z,31.32
2018-04-23T06:44:02.877Z,31.58
2018-04-23T06:46:30.443Z,30.71
2018-04-23T06:48:58.244Z,30.83
2018-04-23T06:51:25.784Z,30.93
2018-04-23T06:53:53.355Z,31.24
2018-04-23T06:56:20.912Z,29.92
2018-04-23T06:58:48.534Z,31.38
2018-04-23T07:01:16.111Z,29.67
2018-04-23T07:03:43.713Z,30.15
2018-04-23T07:06:11.260Z,28.84
2018-04-23T07:08:38.836Z,29.86
2018-04-23T07:11:06.380Z,31.27
2018-04-23T07:13:33.978Z,31.30
2018-04-23T07:16:01.542Z,29.88
2018-04-23T07:18:29.096Z,30.18
2018-04-23T07:20:56.671Z,29.78
2018-04-23T07:23:24.259Z,30.89
2018-04-23T07:25:51.811Z,28.91
2018-04-23T07:28:19.348Z,29.18
2018-04-23T07:30:46.917Z,28.18
2018-04-23T07:33:14.471Z,28.38
2018-04-23T07:35:42.014Z,28.14
2018-04-23T07:38:09.571Z,28.03
2018-04-23T07:40:37.154Z,28.68
2018-04-23T07:43:04.687Z,28.39
2018-04-23T07:45:32.222Z,28.57
2018-04-23T07:47:59.790Z,28.61
2018-04-23T07:50:27.338Z,28.65
2018-04-23T07:52:54.883Z,27.59
2018-04-23T07:55:22.439Z,26.64
2018-04-23T07:57:49.989Z,27.20
2018-04-23T08:00:17.551Z,28.84
2018-04-23T08:02:45.087Z,28.28
2018-04-23T08:05:12.618Z,26.43
2018-04-23T08:07:40.155Z,25.36
2018-04-23T08:10:07.733Z,25.31
2018-04-23T08:12:35.254Z,26.46
2018-04-23T08:15:02.790Z,26.38
2018-04-23T08:17:30.328Z,25.38
2018-04-23T08:19:57.876Z,24.16
2018-04-23T08:22:25.544Z,22.04
2018-04-23T08:24:53.105Z,21.63
2018-04-23T08:27:20.657Z,22.08
2018-04-23T08:29:48.262Z,20.97
2018-04-23T08:32:15.805Z,20.60
2018-04-23T08:34:43.330Z,20.25
2018-04-23T08:37:10.872Z,19.73
2018-04-23T08:39:38.404Z,19.65
2018-04-23T08:42:05.949Z,19.77
2018-04-23T08:44:33.489Z,20.91
2018-04-23T08:47:01.034Z,21.05
2018-04-23T08:49:28.577Z,21.30
2018-04-23T08:51:56.112Z,21.18
2018-04-23T08:54:23.658Z,21.09
2018-04-23T08:56:51.223Z,20.26
2018-04-23T08:59:18.764Z,20.20
2018-04-23T09:01:46.295Z,20.49
2018-04-23T09:04:13.837Z,19.54
2018-04-23T09:06:41.380Z,18.57
2018-04-23T09:09:09.794Z,18.28
2018-04-23T09:11:37.368Z,17.75
2018-04-23T09:14:04.940Z,19.02
2018-04-23T09:16:32.468Z,18.70
2018-04-23T09:18:59.999Z,18.93
2018-04-23T09:21:27.568Z,17.52
2018-04-23T09:23:55.100Z,17.51
2018-04-23T09:26:22.641Z,17.36
2018-04-23T09:28:50.204Z,17.21
2018-04-23T09:31:17.773Z,16.92
2018-04-23T09:33:45.298Z,15.50
2018-04-23T09:36:12.850Z,16.54
2018-04-23T09:38:40.381Z,16.70
2018-04-23T09:41:07.921Z,16.64
2018-04-23T09:43:35.474Z,16.67
2018-04-23T09:46:03.039Z,17.48
2018-04-23T09:48:30.585Z,16.66
2018-04-23T09:50:58.110Z,16.58
2018-04-23T09:53:25.695Z,16.87
2018-04-23T09:55:53.252Z,15.95
2018-04-23T09:58:20.794Z,15.05
2018-04-23T10:00:48.358Z,15.15
2018-04-23T10:03:15.892Z,16.12
2018-04-23T10:05:43.436Z,16.49
2018-04-23T10:08:10.983Z,15.88
2018-04-23T10:10:39.379Z,16.09
2018-04-23T10:13:06.911Z,16.47
2018-04-23T10:15:34.508Z,15.04
2018-04-23T10:18:02.042Z,15.64
2018-04-23T10:20:29.582Z,17.04
2018-04-23T10:22:57.183Z,16.38
2018-04-23T10:25:24.749Z,15.82
2018-04-23T10:27:52.275Z,15.57
2018-04-23T10:30:19.835Z,14.55
2018-04-23T10:32:47.376Z,15.55
2018-04-23T10:35:14.898Z,14.62
2018-04-23T10:37:42.428Z,15.53
2018-04-23T10:40:10.005Z,15.46
2018-04-23T10:42:37.560Z,14.47
2018-04-23T10:45:05.084Z,14.70
2018-04-23T10:47:32.648Z,16.22
2018-04-23T10:50:00.230Z,15.78
2018-04-23T10:52:27.755Z,13.91
2018-04-23T10:54:55.345Z,13.18
2018-04-23T10:57:22.877Z,12.93
2018-04-23T10:59:50.407Z,12.79
2018-04-23T11:02:17.933Z,13.81
2018-04-23T11:04:45.530Z,13.80
2018-04-23T11:07:13.068Z,15.56
2018-04-23T11:09:40.661Z,14.58
2018-04-23T11:12:08.156Z,14.15
2018-04-23T11:14:35.682Z,14.63
2018-04-23T11:17:03.233Z,14.08
2018-04-23T11:19:30.768Z,14.00
2018-04-23T11:21:58.316Z,14.33
2018-04-23T11:24:25.863Z,14.20
2018-04-23T11:26:53.436Z,13.79
2018-04-23T11:29:20.973Z,13.23
2018-04-23T11:31:48.509Z,13.50
2018-04-23T11:34:16.031Z,13.14
2018-04-23T11:36:43.564Z,11.65
2018-04-23T11:39:11.098Z,11.04
2018-04-23T11:41:38.645Z,11.19
2018-04-23T11:44:06.190Z,11.31
2018-04-23T11:46:33.777Z,11.37
2018-04-23T11:49:01.317Z,12.31
2018-04-23T11:51:28.865Z,11.99
2018-04-23T11:53:56.409Z,13.20
2018-04-23T11:56:23.954Z,12.73
2018-04-23T11:58:51.496Z,11.24
2018-04-23T12:01:19.060Z,10.96
2018-04-23T12:03:46.595Z,11.82
2018-04-23T12:06:14.392Z,12.80
2018-04-23T12:08:41.944Z,12.73
2018-04-23T12:11:09.735Z,12.84
2018-04-23T12:13:37.274Z,13.34
2018-04-23T12:16:04.863Z,13.70
2018-04-23T12:18:32.398Z,13.35
2018-04-23T12:20:59.949Z,13.30
2018-04-23T12:23:27.496Z,13.73
2018-04-23T12:25:55.048Z,14.66
2018-04-23T12:28:22.626Z,14.35
2018-04-23T12:30:50.165Z,13.51
2018-04-23T12:33:17.741Z,12.93
2018-04-23T12:35:45.285Z,13.07
2018-04-23T12:38:12.869Z,14.07
2018-04-23T12:40:40.401Z,14.28
2018-04-23T12:43:07.944Z,14.21
2018-04-23T12:45:35.474Z,14.14
2018-04-23T12:48:03.018Z,14.41
2018-04-23T12:50:30.598Z,13.74
2018-04-23T12:52:58.127Z,13.93
2018-04-23T12:55:25.654Z,15.52
2018-04-23T12:57:53.252Z,15.10
2018-04-23T13:00:20.815Z,14.80
2018-04-23T13:02:48.386Z,14.61
2018-04-23T13:05:16.400Z,14.57
2018-04-23T13:07:44.001Z,15.18
2018-04-23T13:10:11.540Z,15.81
2018-04-23T13:12:39.079Z,15.88
2018-04-23T13:15:06.657Z,15.66
2018-04-23T13:17:34.208Z,15.75
2018-04-23T13:20:01.825Z,15.73
2018-04-23T13:22:29.391Z,15.86
2018-04-23T13:24:56.979Z,16.68
2018-04-23T13:27:24.522Z,16.88
2018-04-23T13:29:52.048Z,16.64
2018-04-23T13:32:19.580Z,16.70
2018-04-23T13:34:48.159Z,17.72
2018-04-23T13:37:15.718Z,18.41
2018-04-23T13:39:43.256Z,19.10
2018-04-23T13:42:10.800Z,18.65
2018-04-23T13:44:38.370Z,18.64
2018-04-23T13:47:05.922Z,18.68
2018-04-23T13:49:33.502Z,18.55
2018-04-23T13:52:01.036Z,18.45
2018-04-23T13:54:28.574Z,18.39
2018-04-23T13:56:56.107Z,18.83
2018-04-23T13:59:23.648Z,18.93
2018-04-23T14:01:51.332Z,19.02
2018-04-23T14:04:18.866Z,19.12
2018-04-23T14:06:46.447Z,19.40
2018-04-23T14:09:14.052Z,18.51
2018-04-23T14:11:41.593Z,19.16
2018-04-23T14:14:09.131Z,19.34
2018-04-23T14:16:36.705Z,18.97
2018-04-23T14:19:04.240Z,19.11
2018-04-23T14:21:31.866Z,20.17
2018-04-23T14:23:59.411Z,20.25
2018-04-23T14:26:27.012Z,21.34
2018-04-23T14:28:54.532Z,22.04
2018-04-23T14:31:22.110Z,21.73
2018-04-23T14:33:49.642Z,21.91
2018-04-23T14:36:17.216Z,22.53
2018-04-23T14:38:44.773Z,22.98
2018-04-23T14:41:12.300Z,23.17
2018-04-23T14:43:39.879Z,23.25
2018-04-23T14:46:08.075Z,23.31
2018-04-23T14:48:35.612Z,22.81
2018-04-23T14:51:03.144Z,22.70
2018-04-23T14:53:30.719Z,23.09
2018-04-23T14:55:58.256Z,23.20
2018-04-23T14:58:25.787Z,23.20
2018-04-23T15:00:53.365Z,22.60
2018-04-23T15:03:20.942Z,22.63
2018-04-23T15:05:48.538Z,23.02
2018-04-23T15:08:16.127Z,23.06
2018-04-23T15:10:43.684Z,23.48
2018-04-23T15:13:11.211Z,23.77
2018-04-23T15:15:38.781Z,23.84
2018-04-23T15:18:06.313Z,23.75
2018-04-23T15:20:33.840Z,24.05
2018-04-23T15:23:01.454Z,24.92
2018-04-23T15:25:29.089Z,25.04
2018-04-23T15:27:56.659Z,25.05
2018-04-23T15:30:24.234Z,25.12
2018-04-23T15:32:51.929Z,25.19
2018-04-23T15:35:19.478Z,25.08
2018-04-23T15:37:47.111Z,24.86
2018-04-23T15:40:14.804Z,25.12
2018-04-23T15:42:42.647Z,25.54
2018-04-23T15:45:10.193Z,25.79
2018-04-23T15:47:37.767Z,25.79
2018-04-23T15:50:05.308Z,25.82
2018-04-23T15:52:32.857Z,25.86
2018-04-23T15:55:00.398Z,26.07
2018-04-23T15:57:27.943Z,26.56
2018-04-23T15:59:55.518Z,26.40
2018-04-23T16:02:23.055Z,26.92
2018-04-23T16:04:50.589Z,26.77
2018-04-23T16:07:18.111Z,26.77
2018-04-23T16:09:45.752Z,26.90
2018-04-23T16:12:13.275Z,26.95
2018-04-23T16:14:40.914Z,26.95
2018-04-23T16:17:08.463Z,26.90
2018-04-23T16:19:35.988Z,27.17
2018-04-23T16:22:03.527Z,27.40
2018-04-23T16:24:31.135Z,27.60
2018-04-23T16:26:58.646Z,27.68
2018-04-23T16:29:26.209Z,27.90
2018-04-23T16:31:53.762Z,27.52
2018-04-23T16:34:21.299Z,27.66
2018-04-23T16:36:48.827Z,27.38
2018-04-23T16:39:16.359Z,28.01
2018-04-23T16:41:43.895Z,27.45
2018-04-23T16:44:11.462Z,27.79
2018-04-23T16:46:38.995Z,27.50
2018-04-23T16:49:06.562Z,27.50
2018-04-23T16:51:34.194Z,27.52
2018-04-23T16:54:02.344Z,27.89
2018-04-23T16:56:29.922Z,27.70
2018-04-23T16:58:57.493Z,28.00
2018-04-23T17:01:25.035Z,27.76
2018-04-23T17:03:52.602Z,27.97
2018-04-23T17:06:20.131Z,27.56
2018-04-23T17:08:47.659Z,27.61
2018-04-23T17:11:15.233Z,27.72
2018-04-23T17:13:42.768Z,27.97
2018-04-23T17:16:10.308Z,27.85
2018-04-23T17:18:37.835Z,27.61
2018-04-23T17:21:05.372Z,27.65
2018-04-23T17:23:32.979Z,27.72
2018-04-23T17:26:00.546Z,27.89
2018-04-23T17:28:28.089Z,27.97
2018-04-23T17:30:55.619Z,28.23
2018-04-23T17:33:23.168Z,28.52
2018-04-23T17:35:50.706Z,28.05
2018-04-23T17:38:18.300Z,28.39
2018-04-23T17:40:45.871Z,28.31
2018-04-23T17:43:13.407Z,28.23
2018-04-23T17:45:40.983Z,28.11
2018-04-23T17:48:08.519Z,29.56
2018-04-23T17:50:36.770Z,28.79
2018-04-23T17:53:04.308Z,28.89
2018-04-23T17:55:31.840Z,29.30
2018-04-23T17:57:59.398Z,29.98
2018-04-23T18:00:26.967Z,29.96
2018-04-23T18:02:54.503Z,30.54
2018-04-23T18:05:22.036Z,29.77
2018-04-23T18:07:49.578Z,29.91
2018-04-23T18:10:17.121Z,29.90
2018-04-23T18:12:44.702Z,29.14
2018-04-23T18:15:12.245Z,29.63
2018-04-23T18:17:39.842Z,30.17
2018-04-23T18:20:07.369Z,31.37
2018-04-23T18:22:34.917Z,31.53
2018-04-23T18:25:02.470Z,30.92
2018-04-23T18:27:30.003Z,31.20
2018-04-23T18:29:57.591Z,31.95
2018-04-23T18:32:25.136Z,31.63
2018-04-23T18:34:52.677Z,30.84
2018-04-23T18:37:20.219Z,31.17
2018-04-23T18:39:47.758Z,31.49
2018-04-23T18:42:15.344Z,31.60
2018-04-23T18:44:42.899Z,31.50
2018-04-23T18:47:10.477Z,31.46
2018-04-23T18:49:38.051Z,31.57
2018-04-23T18:52:05.605Z,33.01
2018-04-23T18:54:33.157Z,31.68
2018-04-23T18:57:00.736Z,32.59
2018-04-23T18:59:28.267Z,34.34
2018-04-23T19:01:55.815Z,34.05
2018-04-23T19:04:23.359Z,34.00
2018-04-23T19:06:50.911Z,34.63
2018-04-23T19:09:18.489Z,35.79
2018-04-23T19:11:46.082Z,36.64
2018-04-23T19:14:13.623Z,36.47
2018-04-23T19:16:41.178Z,37.12
2018-04-23T19:19:08.720Z,36.73
2018-04-23T19:21:36.270Z,36.61
2018-04-23T19:24:04.174Z,36.51
2018-04-23T19:26:31.715Z,37.75
2018-04-23T19:28:59.298Z,39.54
2018-04-23T19:31:26.913Z,39.50
2018-04-23T19:33:54.482Z,39.08
2018-04-23T19:36:22.039Z,38.83
2018-04-23T19:38:49.583Z,38.93
2018-04-23T19:41:17.301Z,38.38
2018-04-23T19:43:44.841Z,38.50
2018-04-23T19:46:12.467Z,39.11
2018-04-23T19:48:40.167Z,38.85
2018-04-23T19:51:07.704Z,38.75
2018-04-23T19:53:35.252Z,39.66
2018-04-23T19:56:02.852Z,39.48
2018-04-23T19:58:30.406Z,40.42
2018-04-23T20:00:57.968Z,40.14
2018-04-23T20:03:25.543Z,40.03
2018-04-23T20:05:53.120Z,41.29
2018-04-23T20:08:20.664Z,40.89
2018-04-23T20:10:48.242Z,40.34
2018-04-23T20:13:15.833Z,41.59
2018-04-23T20:15:43.401Z,42.18
2018-04-23T20:18:10.946Z,42.72
2018-04-23T20:20:38.488Z,42.53
2018-04-23T20:23:06.061Z,42.31
2018-04-23T20:25:33.645Z,42.31
2018-04-23T20:28:01.227Z,42.01
2018-04-23T20:30:28.825Z,42.27
2018-04-23T20:32:56.380Z,43.26
2018-04-23T20:35:23.941Z,43.00
2018-04-23T20:37:51.523Z,43.35
2018-04-23T20:40:19.098Z,43.62
2018-04-23T20:42:46.635Z,43.43
2018-04-23T20:45:14.211Z,42.90
2018-04-23T20:47:41.787Z,41.91
2018-04-23T20:50:09.382Z,42.22
2018-04-23T20:52:36.928Z,41.93
2018-04-23T20:55:04.472Z,42.40
2018-04-23T20:57:32.105Z,41.67
2018-04-23T20:59:59.684Z,41.63
2018-04-23T21:02:27.218Z,42.80
2018-04-23T21:04:54.755Z,43.24
2018-04-23T21:07:22.295Z,43.27
2018-04-23T21:09:49.900Z,43.22
2018-04-23T21:12:17.443Z,43.20
2018-04-23T21:14:44.988Z,43.60
2018-04-23T21:17:12.527Z,42.94
2018-04-23T21:19:40.093Z,43.38
2018-04-23T21:22:07.710Z,43.79
2018-04-23T21:24:35.260Z,44.52
2018-04-23T21:27:02.863Z,44.15
2018-04-23T21:29:30.416Z,45.40
2018-04-23T21:31:57.957Z,44.93
2018-04-23T21:34:25.537Z,45.63
2018-04-23T21:36:53.127Z,46.16
2018-04-23T21:39:20.689Z,45.25
2018-04-23T21:41:48.244Z,45.33
2018-04-23T21:44:15.817Z,46.35
2018-04-23T21:46:43.401Z,45.80
2018-04-23T21:49:10.947Z,45.73
2018-04-23T21:51:39.360Z,45.54
2018-04-23T21:54:06.903Z,46.04
2018-04-23T21:56:34.535Z,45.92
2018-04-23T21:59:02.084Z,45.42
2018-04-23T22:01:29.643Z,46.75
2018-04-23T22:03:57.229Z,45.99
2018-04-23T22:06:24.776Z,45.80
2018-04-23T22:08:52.389Z,45.57
2018-04-23T22:11:19.980Z,45.66
2018-04-23T22:13:47.528Z,46.46
2018-04-23T22:16:15.106Z,46.89
2018-04-23T22:18:42.647Z,47.83
2018-04-23T22:21:10.228Z,48.05
2018-04-23T22:23:37.767Z,48.12
2018-04-23T22:26:05.371Z,48.44
2018-04-23T22:28:32.979Z,48.89
2018-04-23T22:31:00.578Z,49.31
2018-04-23T22:33:28.167Z,48.91
2018-04-23T22:35:55.705Z,49.67
2018-04-23T22:38:23.320Z,49.95
2018-04-23T22:40:50.882Z,49.27
2018-04-23T22:43:18.673Z,49.43
2018-04-23T22:45:46.608Z,50.05
2018-04-23T22:48:14.172Z,50.38
2018-04-23T22:50:41.712Z,50.08
2018-04-23T22:53:09.249Z,50.37
2018-04-23T22:55:36.789Z,50.31
2018-04-23T22:58:04.332Z,49.59
2018-04-23T23:00:31.904Z,49.40
2018-04-23T23:02:59.446Z,49.57
2018-04-23T23:05:27.027Z,50.28
2018-04-23T23:07:54.560Z,51.65
2018-04-23T23:10:22.154Z,51.87
2018-04-23T23:12:49.728Z,52.39
2018-04-23T23:15:17.272Z,52.95
2018-04-23T23:17:44.864Z,52.54
2018-04-23T23:20:12.400Z,52.09
2018-04-23T23:22:39.958Z,52.45
2018-04-23T23:25:07.493Z,52.14
2018-04-23T23:27:35.076Z,51.93
2018-04-23T23:30:04.629Z,51.67
2018-04-23T23:32:32.387Z,52.05
2018-04-23T23:34:59.932Z,51.66
2018-04-23T23:37:27.476Z,51.56
2018-04-23T23:39:55.007Z,51.44
2018-04-23T23:42:22.581Z,51.27
2018-04-23T23:44:50.118Z,51.50
2018-04-23T23:47:17.661Z,51.49
2018-04-23T23:49:45.207Z,51.89
2018-04-23T23:52:12.749Z,51.65
2018-04-23T23:54:40.284Z,51.69
2018-04-23T23:57:07.819Z,53.08
2018-04-23T23:59:35.415Z,52.04
